createdAt,value
2018-01-11T00:05:09.163Z,95134
2018-01-11T00:10:37.707Z,95139
2018-01-11T00:16:06.737Z,95134
2018-01-11T00:21:34.939Z,95144
2018-01-11T00:27:03.988Z,95134
2018-01-11T00:32:36.222Z,95136
2018-01-11T00:38:04.454Z,95131
2018-01-11T00:43:38.676Z,95130
2018-01-11T00:49:07.634Z,95134
2018-01-11T00:54:35.925Z,95134
2018-01-11T01:00:04.885Z,95137
2018-01-11T01:05:33.363Z,95141
2018-01-11T01:11:01.803Z,95131
2018-01-11T01:16:30.002Z,95141
2018-01-11T01:21:59.152Z,95135
2018-01-11T01:27:27.380Z,95143
2018-01-11T01:32:55.583Z,95139
2018-01-11T01:38:23.804Z,95136
2018-01-11T01:43:52.028Z,95139
2018-01-11T01:49:20.256Z,95129
2018-01-11T01:54:48.476Z,95136
2018-01-11T02:00:17.688Z,95143
2018-01-11T02:05:45.906Z,95136
2018-01-11T02:11:14.123Z,95135
2018-01-11T02:16:42.366Z,95138
2018-01-11T02:22:10.591Z,95141
2018-01-11T02:27:38.786Z,95142
2018-01-11T02:33:08.985Z,95137
2018-01-11T02:38:37.236Z,95151
2018-01-11T02:44:05.461Z,95149
2018-01-11T02:49:33.661Z,95135
2018-01-11T02:55:01.880Z,95147
2018-01-11T03:00:30.146Z,95142
2018-01-11T03:05:59.120Z,95137
2018-01-11T03:11:27.331Z,95150
2018-01-11T03:16:55.803Z,95149
2018-01-11T03:22:24.270Z,95150
2018-01-11T03:27:53.268Z,95144
2018-01-11T03:33:22.472Z,95154
2018-01-11T03:38:50.701Z,95154
2018-01-11T03:44:18.926Z,95157
2018-01-11T03:49:47.126Z,95156
2018-01-11T03:55:15.416Z,95165
2018-01-11T04:00:44.409Z,95172
2018-01-11T04:06:12.623Z,95159
2018-01-11T04:11:40.855Z,95165
2018-01-11T04:17:09.061Z,95161
2018-01-11T04:22:37.288Z,95170
2018-01-11T04:28:06.397Z,95174
2018-01-11T04:33:34.634Z,95165
2018-01-11T04:39:05.173Z,95176
2018-01-11T04:44:33.358Z,95186
2018-01-11T04:50:01.580Z,95175
2018-01-11T04:55:29.784Z,95191
2018-01-11T05:00:58.196Z,95185
2018-01-11T05:06:28.399Z,95186
2018-01-11T05:11:56.613Z,95191
2018-01-11T05:17:24.805Z,95202
2018-01-11T05:22:53.045Z,95205
2018-01-11T05:28:21.314Z,95198
2018-01-11T05:33:50.798Z,95207
2018-01-11T05:39:19.025Z,95211
2018-01-11T05:44:48.736Z,95215
2018-01-11T05:50:18.660Z,95206
2018-01-11T05:55:46.856Z,95217
2018-01-11T06:01:15.139Z,95216
2018-01-11T06:06:43.360Z,95219
2018-01-11T06:12:11.605Z,95214
2018-01-11T06:17:50.602Z,95227
2018-01-11T06:23:25.406Z,95237
2018-01-11T06:28:53.784Z,95241
2018-01-11T06:34:23.009Z,95234
2018-01-11T06:39:52.003Z,95248
2018-01-11T06:45:20.466Z,95253
2018-01-11T06:50:48.693Z,95258
2018-01-11T06:56:17.686Z,95260
2018-01-11T07:01:45.920Z,95255
2018-01-11T07:07:18.511Z,95264
2018-01-11T07:12:47.525Z,95270
2018-01-11T07:18:16.516Z,95276
2018-01-11T07:23:44.749Z,95274
2018-01-11T07:29:13.038Z,95271
2018-01-11T07:34:41.309Z,95284
2018-01-11T07:40:09.558Z,95286
2018-01-11T07:45:37.856Z,95293
2018-01-11T07:51:06.165Z,95306
2018-01-11T07:56:34.372Z,95301
2018-01-11T08:02:02.574Z,95300
2018-01-11T08:07:30.780Z,95307
2018-01-11T08:12:59.036Z,95319
2018-01-11T08:18:27.254Z,95321
2018-01-11T08:23:55.489Z,95307
2018-01-11T08:29:23.765Z,95312
2018-01-11T08:34:52.969Z,95325
2018-01-11T08:40:24.901Z,95321
2018-01-11T08:45:53.120Z,95329
2018-01-11T08:51:22.293Z,95343
2018-01-11T08:56:50.717Z,95341
2018-01-11T09:02:21.346Z,95357
2018-01-11T09:07:49.631Z,95359
2018-01-11T09:13:26.234Z,95345
2018-01-11T09:18:54.433Z,95352
2018-01-11T09:24:28.440Z,95364
2018-01-11T09:29:57.620Z,95365
2018-01-11T09:35:31.005Z,95367
2018-01-11T09:40:59.310Z,95365
2018-01-11T09:46:41.800Z,95356
2018-01-11T09:52:10.015Z,95366
2018-01-11T09:57:38.265Z,95360
2018-01-11T10:03:06.470Z,95363
2018-01-11T10:08:34.664Z,95360
2018-01-11T10:14:02.874Z,95365
2018-01-11T10:19:50.647Z,95365
2018-01-11T10:25:18.962Z,95361
2018-01-11T10:30:47.257Z,95360
2018-01-11T10:36:15.465Z,95363
2018-01-11T10:41:43.696Z,95360
2018-01-11T10:47:31.322Z,95373
2018-01-11T10:52:59.541Z,95364
2018-01-11T10:58:27.738Z,95369
2018-01-11T11:03:55.946Z,95368
2018-01-11T11:09:30.621Z,95364
2018-01-11T11:14:59.631Z,95359
2018-01-11T11:20:34.664Z,95363
2018-01-11T11:32:08.617Z,95355
2018-01-11T11:38:29.911Z,95363
2018-01-11T11:49:38.364Z,95363
2018-01-11T11:55:07.363Z,95364
2018-01-11T12:00:40.675Z,95367
2018-01-11T12:06:08.934Z,95371
2018-01-11T12:11:41.682Z,95374
2018-01-11T12:17:10.230Z,95369
2018-01-11T12:22:39.209Z,95377
2018-01-11T12:28:09.200Z,95371
2018-01-11T12:33:37.839Z,95367
2018-01-11T12:39:08.429Z,95380
2018-01-11T12:44:36.708Z,95389
2018-01-11T12:50:05.006Z,95382
2018-01-11T12:55:33.222Z,95390
2018-01-11T13:01:02.235Z,95395
2018-01-11T13:06:32.198Z,95403
2018-01-11T13:12:01.674Z,95402
2018-01-11T13:17:31.453Z,95414
2018-01-11T13:23:06.347Z,95413
2018-01-11T13:28:34.705Z,95418
2018-01-11T13:39:54.249Z,95426
2018-01-11T13:45:22.469Z,95424
2018-01-11T13:50:52.370Z,95433
2018-01-11T13:56:20.574Z,95430
2018-01-11T14:01:50.032Z,95436
2018-01-11T14:07:18.276Z,95447
2018-01-11T14:12:48.574Z,95448
2018-01-11T14:18:17.130Z,95441
2018-01-11T14:23:45.442Z,95458
2018-01-11T14:29:16.701Z,95465
2018-01-11T14:34:47.481Z,95472
2018-01-11T14:40:16.439Z,95478
2018-01-11T14:45:44.633Z,95479
2018-01-11T14:51:13.806Z,95479
2018-01-11T14:56:42.025Z,95494
2018-01-11T15:02:10.374Z,95499
2018-01-11T15:07:41.092Z,95511
2018-01-11T15:13:09.387Z,95513
2018-01-11T15:18:37.630Z,95517
2018-01-11T15:24:05.880Z,95527
2018-01-11T15:29:34.901Z,95533
2018-01-11T15:35:03.469Z,95532
2018-01-11T15:40:38.252Z,95543
2018-01-11T15:46:11.523Z,95547
2018-01-11T15:51:39.717Z,95555
2018-01-11T15:57:08.111Z,95555
2018-01-11T16:02:36.432Z,95557
2018-01-11T16:08:06.494Z,95564
2018-01-11T16:13:34.893Z,95567
2018-01-11T16:19:03.264Z,95582
2018-01-11T16:24:33.989Z,95579
2018-01-11T16:30:02.187Z,95584
2018-01-11T16:35:30.545Z,95586
2018-01-11T16:40:58.903Z,95588
2018-01-11T16:46:27.946Z,95590
2018-01-11T16:52:04.946Z,95597
2018-01-11T16:57:33.357Z,95596
2018-01-11T17:03:01.702Z,95605
2018-01-11T17:14:22.553Z,95622
2018-01-11T17:19:55.024Z,95625
2018-01-11T17:25:28.023Z,95630
2018-01-11T17:30:56.324Z,95644
2018-01-11T17:36:28.807Z,95650
2018-01-11T17:42:07.365Z,95650
2018-01-11T17:47:35.629Z,95659
2018-01-11T17:53:04.652Z,95663
2018-01-11T17:58:42.575Z,95667
2018-01-11T18:04:11.876Z,95664
2018-01-11T18:09:42.274Z,95668
2018-01-11T18:15:10.556Z,95678
2018-01-11T18:20:39.518Z,95680
2018-01-11T18:26:13.094Z,95681
2018-01-11T18:31:41.314Z,95684
2018-01-11T18:37:09.626Z,95697
2018-01-11T18:42:43.847Z,95702
2018-01-11T18:48:12.051Z,95702
2018-01-11T18:53:44.978Z,95709
2018-01-11T18:59:13.387Z,95722
2018-01-11T19:04:42.344Z,95722
2018-01-11T19:16:12.514Z,95731
2018-01-11T19:21:40.971Z,95742
2018-01-11T19:27:09.355Z,95747
2018-01-11T19:32:39.710Z,95753
2018-01-11T19:38:08.015Z,95750
2018-01-11T19:43:36.228Z,95761
2018-01-11T19:49:10.064Z,95766
2018-01-11T19:54:43.259Z,95767
2018-01-11T20:00:12.422Z,95775
2018-01-11T20:05:42.578Z,95769
2018-01-11T20:11:11.252Z,95773
2018-01-11T20:16:39.586Z,95777
2018-01-11T20:22:08.489Z,95780
2018-01-11T20:27:39.570Z,95781
2018-01-11T20:33:08.589Z,95793
2018-01-11T20:44:13.463Z,95806
2018-01-11T20:49:59.850Z,95809
2018-01-11T20:55:29.986Z,95806
2018-01-11T21:00:58.245Z,95810
2018-01-11T21:06:27.315Z,95814
2018-01-11T21:12:00.631Z,95821
2018-01-11T21:17:30.698Z,95817
2018-01-11T21:23:07.828Z,95820
2018-01-11T21:28:39.001Z,95828
2018-01-11T21:34:10.443Z,95828
2018-01-11T21:39:38.836Z,95837
2018-01-11T21:50:41.691Z,95839
2018-01-11T21:56:11.942Z,95846
2018-01-11T22:01:44.641Z,95851
2018-01-11T22:07:14.009Z,95847
2018-01-11T22:12:48.904Z,95842
2018-01-11T22:18:17.122Z,95846
2018-01-11T22:23:46.931Z,95853
2018-01-11T22:29:15.174Z,95855
2018-01-11T22:34:43.640Z,95861
2018-01-11T22:40:11.876Z,95861
2018-01-11T22:45:40.147Z,95869
2018-01-11T22:51:34.435Z,95873
2018-01-11T22:57:02.769Z,95876
2018-01-11T23:02:38.452Z,95878
2018-01-11T23:08:06.908Z,95878
2018-01-11T23:13:42.355Z,95878
2018-01-11T23:19:10.576Z,95886
2018-01-11T23:24:39.596Z,95893
2018-01-11T23:30:08.568Z,95886
2018-01-11T23:35:36.809Z,95899
2018-01-11T23:41:06.098Z,95888
2018-01-11T23:46:34.286Z,95897
2018-01-11T23:52:02.512Z,95897
2018-01-11T23:57:31.675Z,95896
